Time;durP1;ratioP1;P1;durP2;ratioP2;P2;SDS_P1;SDS_P2;PMS_P1;PMS_P2;Temp;Humidity;BMP_temperature;BMP_pressure;BME280_temperature;BME280_humidity;BME280_pressure;Samples;Min_cycle;Max_cycle;Signal;HPM_P1;HPM_P2
2021/05/20 00:01:03;;;;;;;;;;;20.60;30.10;;;;;;5033650;28;75103;-70
2021/05/20 00:03:29;;;;;;;;;;;20.50;30.20;;;;;;5031991;28;77161;-71
2021/05/20 00:05:54;;;;;;;;;;;20.50;30.50;;;;;;5032117;28;75297;-70
2021/05/20 00:08:20;;;;;;;;;;;20.40;30.60;;;;;;5033508;28;75501;-70
2021/05/20 00:10:46;;;;;;;;;;;20.40;30.80;;;;;;5031055;28;78545;-69
2021/05/20 00:13:11;;;;;;;;;;;20.40;30.70;;;;;;5031736;28;75380;-69
2021/05/20 00:15:37;;;;;;;;;;;20.40;30.90;;;;;;5032716;28;75607;-70
2021/05/20 00:18:03;;;;;;;;;;;20.40;31.10;;;;;;5031697;28;75678;-70
2021/05/20 00:20:28;;;;;;;;;;;20.30;31.50;;;;;;5031103;28;75618;-69
2021/05/20 00:22:54;;;;;;;;;;;20.30;31.40;;;;;;5031792;28;75152;-71
2021/05/20 00:25:19;;;;;;;;;;;20.20;31.90;;;;;;5033497;28;74491;-70
2021/05/20 00:27:45;;;;;;;;;;;20.10;31.80;;;;;;5031713;28;75343;-69
2021/05/20 00:30:11;;;;;;;;;;;20.00;31.90;;;;;;5031479;28;77157;-70
2021/05/20 00:32:37;;;;;;;;;;;20.00;32.30;;;;;;5031558;28;77383;-72
2021/05/20 00:35:03;;;;;;;;;;;19.90;32.30;;;;;;5031726;28;75716;-70
2021/05/20 00:37:29;;;;;;;;;;;19.90;32.20;;;;;;5031518;28;74721;-69
2021/05/20 00:39:55;;;;;;;;;;;19.90;32.50;;;;;;5031498;28;77679;-69
2021/05/20 00:42:20;;;;;;;;;;;19.90;32.50;;;;;;5032886;28;75050;-69
2021/05/20 00:44:53;;;;;;;;;;;19.90;32.80;;;;;;5031183;28;76312;-69
2021/05/20 00:47:20;;;;;;;;;;;19.80;33.00;;;;;;5031560;28;76005;-71
2021/05/20 00:49:46;;;;;;;;;;;19.70;33.30;;;;;;5032894;28;74478;-70
2021/05/20 00:52:11;;;;;;;;;;;19.70;33.30;;;;;;5033095;28;74436;-70
2021/05/20 00:54:37;;;;;;;;;;;19.60;33.50;;;;;;5031348;28;75690;-72
2021/05/20 00:57:03;;;;;;;;;;;19.60;33.70;;;;;;5031044;28;77547;-71
2021/05/20 00:59:29;;;;;;;;;;;19.60;33.90;;;;;;5032861;28;75800;-71
2021/05/20 01:01:54;;;;;;;;;;;19.50;34.00;;;;;;5032794;28;75146;-70
2021/05/20 01:04:20;;;;;;;;;;;19.50;34.20;;;;;;5033067;28;75132;-71
2021/05/20 01:06:45;;;;;;;;;;;19.50;34.40;;;;;;5031032;28;76322;-70
2021/05/20 01:09:11;;;;;;;;;;;19.40;34.40;;;;;;5031575;28;76796;-70
2021/05/20 01:11:37;;;;;;;;;;;19.40;34.80;;;;;;5031849;28;75298;-69
2021/05/20 01:14:02;;;;;;;;;;;19.40;34.70;;;;;;5032368;28;75001;-70
2021/05/20 01:16:28;;;;;;;;;;;19.40;34.70;;;;;;5030933;28;74907;-69
2021/05/20 01:18:53;;;;;;;;;;;19.40;34.90;;;;;;5032260;28;74438;-69
2021/05/20 01:21:19;;;;;;;;;;;19.30;35.10;;;;;;5032358;28;74964;-69
2021/05/20 01:23:45;;;;;;;;;;;19.30;35.10;;;;;;5030721;28;77025;-70
2021/05/20 01:26:11;;;;;;;;;;;19.20;35.00;;;;;;5030676;28;77246;-71
2021/05/20 01:28:37;;;;;;;;;;;19.20;35.40;;;;;;5030747;28;77123;-69
2021/05/20 01:31:04;;;;;;;;;;;19.10;35.50;;;;;;5032310;28;75462;-69
2021/05/20 01:33:30;;;;;;;;;;;19.00;35.70;;;;;;5033606;28;78327;-70
2021/05/20 01:35:56;;;;;;;;;;;19.00;35.90;;;;;;5034160;28;77992;-71
2021/05/20 01:40:53;;;;;;;;;;;18.90;36.20;;;;;;5033349;28;75120;-69
2021/05/20 01:43:19;;;;;;;;;;;18.90;36.20;;;;;;5034334;28;75930;-69
2021/05/20 01:46:00;;;;;;;;;;;18.90;36.20;;;;;;5034496;28;77277;-69
2021/05/20 01:48:35;;;;;;;;;;;18.90;36.30;;;;;;5034049;28;77430;-69
2021/05/20 01:51:01;;;;;;;;;;;18.90;36.30;;;;;;5034100;28;77110;-69
2021/05/20 01:53:27;;;;;;;;;;;18.90;36.20;;;;;;5035376;28;75127;-69
2021/05/20 01:55:53;;;;;;;;;;;18.70;36.40;;;;;;5035786;28;74741;-70
2021/05/20 01:58:18;;;;;;;;;;;18.70;36.40;;;;;;5035476;28;75654;-71
2021/05/20 02:00:44;;;;;;;;;;;18.60;36.60;;;;;;5033969;28;75404;-69
2021/05/20 02:03:09;;;;;;;;;;;18.60;36.60;;;;;;5033885;28;75376;-69
2021/05/20 02:05:35;;;;;;;;;;;18.50;36.80;;;;;;5033767;28;76177;-69
2021/05/20 02:08:01;;;;;;;;;;;18.50;37.00;;;;;;5035996;28;74634;-70
2021/05/20 02:10:26;;;;;;;;;;;18.40;36.90;;;;;;5033562;28;75390;-71
2021/05/20 02:12:52;;;;;;;;;;;18.40;37.10;;;;;;5035252;28;75648;-71
2021/05/20 02:15:18;;;;;;;;;;;18.40;37.40;;;;;;5033818;28;77110;-69
2021/05/20 02:17:43;;;;;;;;;;;18.40;37.70;;;;;;5034219;28;75405;-72
2021/05/20 02:20:09;;;;;;;;;;;18.30;37.80;;;;;;5033578;28;74541;-70
2021/05/20 02:22:35;;;;;;;;;;;18.40;37.70;;;;;;5035517;28;74595;-72
2021/05/20 02:25:02;;;;;;;;;;;18.30;38.00;;;;;;5033630;28;77194;-72
2021/05/20 02:27:28;;;;;;;;;;;18.40;37.80;;;;;;5033670;28;77185;-73
2021/05/20 02:29:53;;;;;;;;;;;18.40;38.10;;;;;;5035354;28;75165;-72
2021/05/20 02:32:19;;;;;;;;;;;18.40;37.90;;;;;;5035018;28;75186;-72
2021/05/20 02:34:45;;;;;;;;;;;18.30;37.90;;;;;;5035384;28;74477;-72
2021/05/20 02:37:10;;;;;;;;;;;18.30;38.00;;;;;;5033245;28;77604;-71
2021/05/20 02:39:36;;;;;;;;;;;18.30;38.10;;;;;;5033219;28;76190;-72
2021/05/20 02:42:01;;;;;;;;;;;18.30;38.10;;;;;;5033483;28;74607;-71
2021/05/20 02:44:27;;;;;;;;;;;18.30;38.20;;;;;;5032757;28;75749;-72
2021/05/20 02:46:53;;;;;;;;;;;18.20;38.30;;;;;;5033371;28;75337;-70
2021/05/20 02:49:18;;;;;;;;;;;18.20;38.30;;;;;;5034739;28;75523;-69
2021/05/20 02:51:44;;;;;;;;;;;18.10;38.60;;;;;;5033100;28;77221;-70
2021/05/20 02:54:10;;;;;;;;;;;18.10;38.40;;;;;;5033129;28;77219;-70
2021/05/20 02:56:35;;;;;;;;;;;17.90;38.80;;;;;;5034341;28;75083;-69
2021/05/20 02:59:01;;;;;;;;;;;17.90;39.00;;;;;;5034624;28;74929;-71
2021/05/20 03:01:27;;;;;;;;;;;17.90;39.10;;;;;;5034495;28;74417;-70
2021/05/20 03:03:53;;;;;;;;;;;17.90;39.00;;;;;;5032784;28;77887;-69
2021/05/20 03:06:18;;;;;;;;;;;17.90;39.10;;;;;;5034453;28;75050;-69
2021/05/20 03:08:45;;;;;;;;;;;17.90;39.30;;;;;;5033041;28;76298;-73
2021/05/20 03:11:11;;;;;;;;;;;17.70;39.70;;;;;;5032477;28;76525;-69
2021/05/20 03:13:36;;;;;;;;;;;17.70;39.60;;;;;;5032587;28;77379;-71
2021/05/20 03:16:02;;;;;;;;;;;17.70;39.80;;;;;;5034884;28;74436;-71
2021/05/20 03:18:28;;;;;;;;;;;17.60;40.00;;;;;;5032900;28;77002;-69
2021/05/20 03:20:53;;;;;;;;;;;17.60;39.80;;;;;;5033769;28;76703;-69
2021/05/20 03:23:19;;;;;;;;;;;17.60;40.30;;;;;;5034325;28;75171;-69
2021/05/20 03:25:45;;;;;;;;;;;17.50;40.00;;;;;;5033993;28;74849;-71
2021/05/20 03:28:10;;;;;;;;;;;17.50;40.10;;;;;;5032635;28;76216;-72
2021/05/20 03:30:36;;;;;;;;;;;17.50;40.10;;;;;;5033913;28;74730;-70
2021/05/20 03:33:01;;;;;;;;;;;17.50;40.20;;;;;;5032465;28;77518;-71
2021/05/20 03:35:27;;;;;;;;;;;17.50;40.30;;;;;;5034336;28;74591;-72
2021/05/20 03:37:53;;;;;;;;;;;17.40;40.20;;;;;;5032467;28;78209;-70
2021/05/20 03:40:19;;;;;;;;;;;17.30;40.40;;;;;;5034072;28;75064;-72
2021/05/20 03:42:45;;;;;;;;;;;17.30;40.50;;;;;;5032209;28;78096;-72
2021/05/20 03:45:11;;;;;;;;;;;17.20;40.70;;;;;;5032351;28;77414;-71
2021/05/20 03:47:38;;;;;;;;;;;17.20;40.50;;;;;;5032263;28;75850;-73
2021/05/20 03:50:04;;;;;;;;;;;17.20;40.70;;;;;;5034242;28;74593;-72
2021/05/20 03:52:30;;;;;;;;;;;17.10;40.80;;;;;;5033317;28;75792;-71
2021/05/20 03:54:56;;;;;;;;;;;17.00;41.10;;;;;;5031471;28;78136;-73
2021/05/20 03:57:21;;;;;;;;;;;17.00;41.00;;;;;;5032174;28;76097;-73
2021/05/20 03:59:47;;;;;;;;;;;17.00;41.00;;;;;;5033592;28;75322;-73
2021/05/20 04:02:12;;;;;;;;;;;17.00;41.20;;;;;;5032037;28;76570;-72
2021/05/20 04:04:38;;;;;;;;;;;17.00;41.10;;;;;;5031858;28;74681;-72
2021/05/20 04:07:03;;;;;;;;;;;17.00;41.40;;;;;;5033624;28;75003;-73
2021/05/20 04:09:29;;;;;;;;;;;16.90;41.40;;;;;;5031866;28;77712;-71
2021/05/20 04:11:55;;;;;;;;;;;16.90;41.40;;;;;;5032763;28;75226;-74
2021/05/20 04:14:20;;;;;;;;;;;16.80;41.80;;;;;;5031902;28;75312;-71
2021/05/20 04:16:46;;;;;;;;;;;16.70;41.90;;;;;;5031644;28;75407;-70
2021/05/20 04:19:13;;;;;;;;;;;16.60;42.00;;;;;;5033557;28;75134;-68
2021/05/20 04:21:39;;;;;;;;;;;16.60;41.80;;;;;;5033185;28;75217;-69
2021/05/20 04:24:05;;;;;;;;;;;16.50;42.10;;;;;;5031768;28;75499;-66
2021/05/20 04:26:30;;;;;;;;;;;16.60;42.20;;;;;;5031697;28;76984;-70
2021/05/20 04:28:56;;;;;;;;;;;16.50;42.10;;;;;;5031483;28;77135;-70
2021/05/20 04:31:22;;;;;;;;;;;16.50;42.20;;;;;;5033208;28;75346;-70
2021/05/20 04:33:47;;;;;;;;;;;16.50;42.30;;;;;;5031715;28;77098;-70
2021/05/20 04:36:13;;;;;;;;;;;16.50;42.20;;;;;;5033707;28;74616;-70
2021/05/20 04:38:39;;;;;;;;;;;16.50;42.30;;;;;;5031526;28;74621;-70
2021/05/20 04:41:04;;;;;;;;;;;16.50;42.30;;;;;;5032806;28;75103;-70
2021/05/20 04:43:30;;;;;;;;;;;16.50;42.50;;;;;;5031405;28;75700;-73
2021/05/20 04:45:56;;;;;;;;;;;16.50;42.40;;;;;;5031582;28;75469;-71
2021/05/20 04:48:21;;;;;;;;;;;16.50;42.50;;;;;;5031311;28;77457;-70
2021/05/20 04:50:47;;;;;;;;;;;16.50;42.50;;;;;;5032669;28;74928;-70
2021/05/20 04:53:13;;;;;;;;;;;16.50;42.50;;;;;;5032770;28;75171;-71
2021/05/20 04:55:39;;;;;;;;;;;16.50;42.50;;;;;;5030830;28;74693;-69
2021/05/20 04:58:04;;;;;;;;;;;16.50;42.60;;;;;;5031256;28;75346;-70
2021/05/20 05:00:30;;;;;;;;;;;16.50;42.50;;;;;;5033174;28;75704;-71
2021/05/20 05:02:55;;;;;;;;;;;16.50;42.60;;;;;;5032657;28;74584;-71
2021/05/20 05:05:21;;;;;;;;;;;16.50;42.60;;;;;;5032787;28;75622;-71
2021/05/20 05:07:46;;;;;;;;;;;16.50;42.50;;;;;;5034777;27;75072;-70
2021/05/20 05:10:12;;;;;;;;;;;16.40;42.80;;;;;;5035062;28;78028;-71
2021/05/20 05:12:38;;;;;;;;;;;16.50;42.70;;;;;;5038284;28;76455;-70
2021/05/20 05:15:07;;;;;;;;;;;16.50;42.70;;;;;;5052827;28;75149;-69
2021/05/20 05:17:33;;;;;;;;;;;16.50;42.60;;;;;;5051852;28;76069;-70
2021/05/20 05:19:58;;;;;;;;;;;16.60;42.70;;;;;;5035477;28;75052;-70
2021/05/20 05:22:24;;;;;;;;;;;16.60;42.60;;;;;;5032526;28;75178;-70
2021/05/20 05:24:49;;;;;;;;;;;16.60;42.70;;;;;;5030763;28;77765;-69
2021/05/20 05:27:15;;;;;;;;;;;16.60;42.50;;;;;;5030785;28;74699;-69
2021/05/20 05:29:43;;;;;;;;;;;16.60;42.60;;;;;;5031059;28;75433;-70
2021/05/20 05:32:09;;;;;;;;;;;16.70;42.60;;;;;;5039632;28;75132;-69
2021/05/20 05:34:34;;;;;;;;;;;16.70;42.40;;;;;;5045088;28;76955;-68
2021/05/20 05:37:01;;;;;;;;;;;16.60;42.50;;;;;;5047553;28;78426;-67
2021/05/20 05:39:27;;;;;;;;;;;16.60;42.50;;;;;;5050964;28;76566;-69
2021/05/20 05:41:53;;;;;;;;;;;16.70;42.60;;;;;;5049473;28;77690;-70
2021/05/20 05:44:18;;;;;;;;;;;16.70;42.50;;;;;;5047228;28;76249;-68
2021/05/20 05:46:44;;;;;;;;;;;16.70;42.40;;;;;;5050828;28;75220;-68
2021/05/20 05:49:15;;;;;;;;;;;16.80;42.40;;;;;;5050623;28;76620;-68
2021/05/20 05:51:46;;;;;;;;;;;16.80;42.30;;;;;;5050052;27;77574;-68
2021/05/20 05:54:12;;;;;;;;;;;16.90;42.20;;;;;;5050333;28;76060;-68
2021/05/20 05:56:37;;;;;;;;;;;16.90;42.10;;;;;;5050464;27;75610;-66
2021/05/20 05:59:03;;;;;;;;;;;16.80;42.10;;;;;;5050509;28;75220;-66
2021/05/20 06:01:29;;;;;;;;;;;16.80;42.10;;;;;;5050153;28;78422;-66
2021/05/20 06:03:56;;;;;;;;;;;16.80;42.10;;;;;;5050420;28;75358;-66
2021/05/20 06:06:22;;;;;;;;;;;16.80;42.10;;;;;;5051710;27;75622;-69
2021/05/20 06:08:48;;;;;;;;;;;16.90;42.20;;;;;;5051861;27;75628;-66
2021/05/20 06:11:13;;;;;;;;;;;16.90;42.20;;;;;;5051502;28;74615;-69
2021/05/20 06:13:39;;;;;;;;;;;17.00;42.10;;;;;;5049607;28;75167;-67
2021/05/20 06:16:05;;;;;;;;;;;17.00;42.10;;;;;;5049877;28;76092;-69
2021/05/20 06:18:31;;;;;;;;;;;17.10;42.20;;;;;;5051774;27;75383;-70
2021/05/20 06:20:56;;;;;;;;;;;17.10;42.20;;;;;;5053891;28;75586;-71
2021/05/20 06:23:23;;;;;;;;;;;17.20;42.20;;;;;;5052969;28;75362;-71
2021/05/20 06:25:48;;;;;;;;;;;17.20;42.30;;;;;;5053383;28;76478;-71
2021/05/20 06:28:14;;;;;;;;;;;17.30;42.40;;;;;;5054327;27;74611;-68
2021/05/20 06:30:39;;;;;;;;;;;17.40;42.20;;;;;;5053472;28;75328;-68
2021/05/20 06:33:05;;;;;;;;;;;17.40;42.00;;;;;;5054369;28;75455;-66
2021/05/20 06:35:31;;;;;;;;;;;17.40;41.70;;;;;;5053359;28;76582;-69
2021/05/20 06:37:56;;;;;;;;;;;17.50;41.80;;;;;;5054728;28;75738;-69
2021/05/20 06:40:22;;;;;;;;;;;17.50;41.40;;;;;;5052287;28;77520;-70
2021/05/20 06:42:48;;;;;;;;;;;17.70;40.90;;;;;;5050959;27;76760;-69
2021/05/20 06:45:14;;;;;;;;;;;17.70;40.60;;;;;;5038923;27;75139;-69
2021/05/20 06:47:39;;;;;;;;;;;17.70;40.30;;;;;;5035873;28;77497;-68
2021/05/20 06:50:06;;;;;;;;;;;17.80;40.60;;;;;;5047656;28;77427;-69
2021/05/20 06:52:32;;;;;;;;;;;18.00;40.40;;;;;;5051221;28;75106;-69
2021/05/20 06:54:57;;;;;;;;;;;18.00;40.30;;;;;;5050605;28;75837;-70
2021/05/20 06:57:27;;;;;;;;;;;18.10;39.90;;;;;;5051719;28;77008;-71
2021/05/20 07:00:01;;;;;;;;;;;18.20;39.60;;;;;;5051832;28;76381;-69
2021/05/20 07:02:28;;;;;;;;;;;18.30;39.30;;;;;;5051578;28;76305;-69
2021/05/20 07:04:54;;;;;;;;;;;18.40;39.20;;;;;;5052534;28;76392;-69
2021/05/20 07:07:20;;;;;;;;;;;18.40;39.00;;;;;;5052550;28;74638;-70
2021/05/20 07:09:47;;;;;;;;;;;18.40;38.90;;;;;;5052437;28;74920;-69
2021/05/20 07:12:13;;;;;;;;;;;18.40;38.90;;;;;;5050917;28;77218;-69
2021/05/20 07:14:39;;;;;;;;;;;18.60;38.90;;;;;;5051971;28;78491;-69
2021/05/20 07:17:04;;;;;;;;;;;18.60;38.60;;;;;;5051080;28;76166;-71
2021/05/20 07:19:33;;;;;;;;;;;18.70;38.70;;;;;;5050296;28;75230;-69
2021/05/20 07:21:59;;;;;;;;;;;18.80;38.60;;;;;;5051934;28;76433;-69
2021/05/20 07:24:24;;;;;;;;;;;18.80;38.40;;;;;;5053563;28;74929;-70
2021/05/20 07:26:51;;;;;;;;;;;18.90;38.60;;;;;;5050773;28;75379;-69
2021/05/20 07:29:16;;;;;;;;;;;18.90;38.40;;;;;;5054033;28;76280;-69
2021/05/20 07:31:42;;;;;;;;;;;18.90;38.50;;;;;;5053763;28;74504;-70
2021/05/20 07:34:08;;;;;;;;;;;19.00;38.60;;;;;;5053334;28;75656;-69
2021/05/20 07:36:34;;;;;;;;;;;19.10;38.50;;;;;;5052093;28;75466;-70
2021/05/20 07:39:03;;;;;;;;;;;19.10;38.50;;;;;;5052290;28;75364;-70
2021/05/20 07:41:30;;;;;;;;;;;19.20;38.60;;;;;;5047552;27;76288;-68
2021/05/20 07:43:56;;;;;;;;;;;19.30;38.30;;;;;;5045039;28;77046;-69
2021/05/20 07:46:25;;;;;;;;;;;19.30;38.40;;;;;;5042719;27;77623;-70
2021/05/20 07:48:51;;;;;;;;;;;19.40;38.30;;;;;;5049593;27;74816;-69
2021/05/20 07:51:17;;;;;;;;;;;19.50;38.00;;;;;;5051994;28;78063;-69
2021/05/20 07:53:43;;;;;;;;;;;19.50;38.00;;;;;;5052953;27;74504;-71
2021/05/20 07:56:09;;;;;;;;;;;19.60;38.20;;;;;;5053420;27;74555;-71
2021/05/20 07:58:34;;;;;;;;;;;19.70;38.50;;;;;;5051629;28;75685;-70
2021/05/20 08:01:03;;;;;;;;;;;19.80;38.60;;;;;;5051176;28;75426;-75
2021/05/20 08:03:38;;;;;;;;;;;19.90;39.30;;;;;;5049620;27;76236;-75
2021/05/20 08:06:13;;;;;;;;;;;19.90;39.80;;;;;;5051270;28;78132;-70
2021/05/20 08:11:14;;;;;;;;;;;19.90;39.90;;;;;;5051182;27;74987;-70
2021/05/20 08:13:40;;;;;;;;;;;19.90;39.50;;;;;;5053055;27;75247;-70
2021/05/20 08:16:06;;;;;;;;;;;20.00;39.80;;;;;;5052102;28;74973;-69
2021/05/20 08:18:32;;;;;;;;;;;20.10;39.70;;;;;;5053238;27;75168;-70
2021/05/20 08:20:58;;;;;;;;;;;20.10;40.60;;;;;;5045287;27;77207;-70
2021/05/20 08:23:24;;;;;;;;;;;20.10;40.30;;;;;;5042796;28;75783;-69
2021/05/20 08:25:50;;;;;;;;;;;20.10;41.50;;;;;;5050936;27;75319;-69
2021/05/20 08:28:16;;;;;;;;;;;20.20;42.60;;;;;;5052534;28;75352;-70
2021/05/20 08:30:42;;;;;;;;;;;20.00;41.70;;;;;;5053381;28;75145;-70
2021/05/20 08:33:08;;;;;;;;;;;20.00;43.10;;;;;;5052616;28;75212;-70
2021/05/20 08:35:34;;;;;;;;;;;20.00;42.50;;;;;;5051721;28;77132;-70
2021/05/20 08:38:00;;;;;;;;;;;20.10;43.00;;;;;;5051052;28;76943;-65
2021/05/20 08:40:26;;;;;;;;;;;20.20;43.70;;;;;;5050911;28;77102;-68
2021/05/20 08:42:52;;;;;;;;;;;20.20;42.90;;;;;;5050579;28;76378;-68
2021/05/20 08:45:19;;;;;;;;;;;20.20;43.40;;;;;;5050563;28;75038;-68
2021/05/20 08:47:45;;;;;;;;;;;20.30;42.80;;;;;;5051614;28;78138;-67
2021/05/20 08:50:11;;;;;;;;;;;20.40;43.10;;;;;;5050807;28;75569;-70
2021/05/20 08:52:38;;;;;;;;;;;20.40;42.60;;;;;;5050455;28;77196;-70
2021/05/20 08:55:04;;;;;;;;;;;20.40;43.00;;;;;;5052053;28;74405;-68
2021/05/20 08:57:30;;;;;;;;;;;20.50;42.60;;;;;;5051800;28;75673;-69
2021/05/20 08:59:56;;;;;;;;;;;20.60;42.60;;;;;;5050904;28;76369;-70
2021/05/20 09:02:22;;;;;;;;;;;20.70;42.40;;;;;;5050732;28;77026;-70
2021/05/20 09:05:00;;;;;;;;;;;20.90;42.30;;;;;;5050612;28;78511;-69
2021/05/20 09:07:37;;;;;;;;;;;21.00;41.80;;;;;;5049232;28;77222;-69
2021/05/20 09:10:09;;;;;;;;;;;21.10;42.00;;;;;;5050222;28;75689;-69
2021/05/20 09:12:35;;;;;;;;;;;21.20;41.80;;;;;;5051104;28;75336;-67
2021/05/20 09:15:01;;;;;;;;;;;21.40;42.00;;;;;;5051249;28;75711;-67
2021/05/20 09:17:26;;;;;;;;;;;21.40;41.90;;;;;;5051946;28;75153;-67
2021/05/20 09:19:53;;;;;;;;;;;21.50;42.00;;;;;;5051819;28;74945;-68
2021/05/20 09:22:19;;;;;;;;;;;21.60;41.50;;;;;;5051727;28;75736;-67
2021/05/20 09:24:46;;;;;;;;;;;21.60;42.00;;;;;;5051896;28;75307;-68
2021/05/20 09:27:42;;;;;;;;;;;21.60;42.50;;;;;;5050836;28;74988;-68
2021/05/20 09:30:14;;;;;;;;;;;21.60;43.30;;;;;;5034946;28;75467;-67
2021/05/20 09:32:42;;;;;;;;;;;21.60;42.50;;;;;;5050049;28;75406;-67
2021/05/20 09:35:08;;;;;;;;;;;21.70;42.50;;;;;;5049944;28;76470;-68
2021/05/20 09:37:44;;;;;;;;;;;21.90;41.80;;;;;;5051726;28;75554;-67
2021/05/20 09:40:10;;;;;;;;;;;21.90;42.50;;;;;;5047978;28;78183;-67
2021/05/20 09:42:36;;;;;;;;;;;21.90;41.90;;;;;;5049762;28;75732;-68
2021/05/20 09:45:08;;;;;;;;;;;21.90;42.40;;;;;;5051179;27;75565;-67
2021/05/20 09:47:34;;;;;;;;;;;22.00;42.20;;;;;;5052205;28;74486;-68
2021/05/20 09:50:01;;;;;;;;;;;22.20;41.80;;;;;;5051612;27;74977;-69
2021/05/20 09:52:27;;;;;;;;;;;22.40;41.70;;;;;;5050043;27;77418;-66
2021/05/20 09:54:53;;;;;;;;;;;22.40;41.70;;;;;;5053229;28;75599;-67
2021/05/20 09:57:33;;;;;;;;;;;22.50;41.20;;;;;;5055373;27;75059;-67
2021/05/20 10:00:01;;;;;;;;;;;22.70;41.00;;;;;;5053503;28;75469;-67
2021/05/20 10:02:27;;;;;;;;;;;22.90;40.80;;;;;;5055289;27;74421;-67
2021/05/20 10:04:53;;;;;;;;;;;23.10;40.60;;;;;;5055112;27;74665;-67
2021/05/20 10:07:25;;;;;;;;;;;23.20;40.10;;;;;;5053160;28;76285;-68
2021/05/20 10:09:51;;;;;;;;;;;23.30;40.00;;;;;;5053630;28;75808;-68
2021/05/20 10:12:17;;;;;;;;;;;23.40;40.00;;;;;;5052327;28;75592;-68
2021/05/20 10:14:43;;;;;;;;;;;23.60;39.80;;;;;;5054915;27;75750;-69
2021/05/20 10:17:08;;;;;;;;;;;23.90;39.80;;;;;;5055219;27;74502;-68
2021/05/20 10:19:36;;;;;;;;;;;24.10;39.30;;;;;;5052944;28;77625;-68
2021/05/20 10:22:02;;;;;;;;;;;24.20;38.50;;;;;;5054989;27;75030;-69
2021/05/20 10:24:29;;;;;;;;;;;24.10;38.20;;;;;;5052852;28;77568;-69
2021/05/20 10:26:55;;;;;;;;;;;24.20;39.10;;;;;;5053299;28;75846;-67
2021/05/20 10:29:20;;;;;;;;;;;24.40;38.20;;;;;;5053076;28;77326;-68
2021/05/20 10:31:46;;;;;;;;;;;24.70;38.90;;;;;;5054796;28;75254;-69
2021/05/20 10:34:15;;;;;;;;;;;25.00;37.70;;;;;;5054595;27;75250;-68
2021/05/20 10:36:55;;;;;;;;;;;25.20;37.20;;;;;;5052823;28;76636;-69
2021/05/20 10:39:21;;;;;;;;;;;25.40;36.50;;;;;;5054074;28;75189;-67
2021/05/20 10:41:47;;;;;;;;;;;25.70;36.00;;;;;;5050734;28;75918;-68
2021/05/20 10:44:14;;;;;;;;;;;26.00;36.20;;;;;;5050902;28;75834;-67
2021/05/20 10:47:04;;;;;;;;;;;26.30;35.90;;;;;;5051529;28;76076;-66
2021/05/20 10:49:49;;;;;;;;;;;26.50;34.30;;;;;;5053902;27;75677;-67
2021/05/20 10:52:33;;;;;;;;;;;26.70;34.90;;;;;;5052297;28;77500;-67
2021/05/20 10:55:03;;;;;;;;;;;26.90;34.60;;;;;;5053797;28;75997;-68
2021/05/20 10:57:47;;;;;;;;;;;27.20;33.90;;;;;;5054532;28;75130;-68
2021/05/20 11:00:28;;;;;;;;;;;27.50;33.50;;;;;;5053969;28;75184;-67
2021/05/20 11:02:54;;;;;;;;;;;27.80;33.10;;;;;;5054421;27;75277;-68
2021/05/20 11:05:40;;;;;;;;;;;28.20;32.70;;;;;;5051721;27;74578;-68
2021/05/20 11:08:08;;;;;;;;;;;28.50;32.20;;;;;;5046263;27;75687;-68
2021/05/20 11:10:35;;;;;;;;;;;29.00;31.80;;;;;;5052294;28;74693;-67
2021/05/20 11:13:00;;;;;;;;;;;29.50;31.40;;;;;;5052214;28;77096;-68
2021/05/20 11:15:26;;;;;;;;;;;30.00;30.60;;;;;;5051431;28;75676;-68
2021/05/20 11:17:52;;;;;;;;;;;30.60;30.30;;;;;;5047738;27;74943;-68
2021/05/20 11:20:23;;;;;;;;;;;31.10;28.70;;;;;;5039425;28;74987;-69
2021/05/20 11:23:07;;;;;;;;;;;31.50;28.60;;;;;;5053999;28;75210;-68
2021/05/20 11:25:33;;;;;;;;;;;32.20;27.90;;;;;;5038396;28;75136;-69
2021/05/20 11:28:01;;;;;;;;;;;33.20;26.90;;;;;;5046313;27;76952;-65
2021/05/20 11:30:26;;;;;;;;;;;33.90;23.50;;;;;;5050658;28;75433;-67
2021/05/20 11:32:58;;;;;;;;;;;34.00;24.90;;;;;;5053674;28;75579;-67
2021/05/20 11:35:37;;;;;;;;;;;34.90;24.00;;;;;;5053735;28;75768;-67
2021/05/20 11:38:03;;;;;;;;;;;36.20;23.30;;;;;;5053685;27;74637;-68
2021/05/20 11:40:34;;;;;;;;;;;37.50;21.80;;;;;;5052191;28;75453;-66
2021/05/20 11:43:01;;;;;;;;;;;38.00;19.50;;;;;;5051853;27;75255;-67
2021/05/20 11:45:31;;;;;;;;;;;38.40;20.60;;;;;;5050940;28;75382;-67
2021/05/20 11:48:00;;;;;;;;;;;39.70;19.70;;;;;;5052608;28;75149;-68
2021/05/20 11:50:26;;;;;;;;;;;41.20;19.10;;;;;;5053053;28;75064;-68
2021/05/20 11:52:53;;;;;;;;;;;42.40;18.20;;;;;;5053830;28;74481;-67
2021/05/20 11:55:19;;;;;;;;;;;43.40;17.30;;;;;;5051923;28;75493;-66
2021/05/20 11:57:45;;;;;;;;;;;43.70;15.30;;;;;;5053334;27;75040;-68
2021/05/20 12:00:11;;;;;;;;;;;42.90;16.90;;;;;;5053547;27;75193;-68
2021/05/20 12:02:38;;;;;;;;;;;43.50;15.40;;;;;;5052894;27;75864;-68
2021/05/20 12:05:06;;;;;;;;;;;43.90;16.70;;;;;;5051944;28;76507;-68
2021/05/20 12:07:33;;;;;;;;;;;44.80;16.00;;;;;;5052814;27;75156;-68
2021/05/20 12:10:11;;;;;;;;;;;45.40;15.60;;;;;;5051976;28;76534;-68
2021/05/20 12:12:38;;;;;;;;;;;45.80;15.60;;;;;;5051109;28;75706;-69
2021/05/20 12:15:11;;;;;;;;;;;46.00;15.60;;;;;;5051402;28;74876;-69
2021/05/20 12:17:36;;;;;;;;;;;46.20;15.50;;;;;;5052709;27;74484;-68
2021/05/20 12:20:02;;;;;;;;;;;46.90;15.70;;;;;;5051367;28;78218;-68
2021/05/20 12:22:29;;;;;;;;;;;47.70;15.20;;;;;;5051539;28;75739;-67
2021/05/20 12:24:54;;;;;;;;;;;48.50;15.00;;;;;;5053315;27;74625;-67
2021/05/20 12:27:27;;;;;;;;;;;49.20;14.60;;;;;;5052597;27;75321;-67
2021/05/20 12:29:57;;;;;;;;;;;49.50;14.00;;;;;;5051304;28;76014;-67
2021/05/20 12:32:23;;;;;;;;;;;49.50;13.80;;;;;;5050637;27;76908;-68
2021/05/20 12:35:05;;;;;;;;;;;49.70;14.30;;;;;;5051985;27;75257;-68
2021/05/20 12:37:40;;;;;;;;;;;49.90;14.40;;;;;;5050749;28;77184;-68
2021/05/20 12:40:10;;;;;;;;;;;50.40;14.00;;;;;;5050224;28;76246;-68
2021/05/20 12:42:36;;;;;;;;;;;50.60;14.20;;;;;;5050528;28;75964;-68
2021/05/20 12:45:02;;;;;;;;;;;51.50;13.50;;;;;;5052870;28;75325;-68
2021/05/20 12:47:28;;;;;;;;;;;51.90;13.70;;;;;;5052503;28;75854;-68
2021/05/20 12:49:56;;;;;;;;;;;52.30;13.80;;;;;;5053110;28;75113;-68
2021/05/20 12:52:22;;;;;;;;;;;52.70;13.30;;;;;;5050901;28;75526;-68
2021/05/20 12:54:48;;;;;;;;;;;52.90;13.40;;;;;;5051261;28;75576;-68
2021/05/20 12:57:14;;;;;;;;;;;53.30;13.40;;;;;;5051106;28;75021;-68
2021/05/20 12:59:41;;;;;;;;;;;53.60;13.50;;;;;;5050711;28;75162;-68
2021/05/20 13:02:18;;;;;;;;;;;53.90;12.80;;;;;;5050041;27;76006;-68
2021/05/20 13:04:43;;;;;;;;;;;53.50;12.70;;;;;;5032487;28;75632;-68
2021/05/20 13:07:14;;;;;;;;;;;53.20;12.80;;;;;;5031007;28;76940;-73
2021/05/20 13:09:41;;;;;;;;;;;53.00;12.50;;;;;;5032809;28;75113;-76
2021/05/20 13:12:14;;;;;;;;;;;53.50;13.30;;;;;;5064239;27;76512;-72
2021/05/20 13:14:52;;;;;;;;;;;54.10;13.10;;;;;;5032738;28;75697;-74
2021/05/20 13:17:49;;;;;;;;;;;54.50;12.70;;;;;;5032519;28;75390;-71
2021/05/20 13:22:52;;;;;;;;;;;56.00;12.50;;;;;;5031191;28;74498;-73
2021/05/20 13:25:19;;;;;;;;;;;56.80;12.80;;;;;;5033063;28;74448;-74
2021/05/20 13:27:45;;;;;;;;;;;57.30;12.60;;;;;;5032280;28;76158;-73
2021/05/20 13:30:15;;;;;;;;;;;57.40;12.60;;;;;;5035949;28;75746;-73
2021/05/20 13:32:51;;;;;;;;;;;57.50;12.60;;;;;;5035566;28;75451;-71
2021/05/20 13:35:17;;;;;;;;;;;57.40;12.60;;;;;;5034116;28;75831;-71
2021/05/20 13:37:43;;;;;;;;;;;57.50;12.30;;;;;;5034083;28;74707;-70
2021/05/20 13:40:16;;;;;;;;;;;57.80;12.40;;;;;;5038531;27;74674;-69
2021/05/20 13:42:42;;;;;;;;;;;58.00;11.80;;;;;;5047021;28;75625;-73
2021/05/20 13:45:08;;;;;;;;;;;58.00;12.10;;;;;;5053902;28;77011;-70
2021/05/20 13:47:34;;;;;;;;;;;57.90;10.60;;;;;;5049871;28;75070;-69
2021/05/20 13:50:00;;;;;;;;;;;57.00;12.30;;;;;;5055639;28;75618;-69
2021/05/20 13:52:29;;;;;;;;;;;56.50;11.80;;;;;;5047640;28;75347;-71
2021/05/20 13:54:55;;;;;;;;;;;56.30;11.40;;;;;;5034113;28;77269;-71
2021/05/20 13:57:21;;;;;;;;;;;56.30;12.10;;;;;;5033691;28;76023;-70
2021/05/20 13:59:47;;;;;;;;;;;56.80;11.30;;;;;;5035679;28;75483;-71
2021/05/20 14:02:30;;;;;;;;;;;56.30;11.70;;;;;;5035472;28;74510;-71
2021/05/20 14:04:55;;;;;;;;;;;56.20;11.20;;;;;;5033969;28;75438;-71
2021/05/20 14:07:21;;;;;;;;;;;56.40;11.80;;;;;;5035362;28;75373;-71
2021/05/20 14:09:47;;;;;;;;;;;56.90;11.70;;;;;;5036024;28;74353;-70
2021/05/20 14:12:16;;;;;;;;;;;57.40;11.30;;;;;;5034995;28;74406;-69
2021/05/20 14:14:45;;;;;;;;;;;57.60;11.40;;;;;;5033670;28;75673;-71
2021/05/20 14:17:11;;;;;;;;;;;57.60;11.20;;;;;;5035969;28;74463;-72
2021/05/20 14:19:36;;;;;;;;;;;57.40;11.00;;;;;;5035567;28;75653;-68
2021/05/20 14:22:03;;;;;;;;;;;56.80;11.50;;;;;;5038674;27;75100;-69
2021/05/20 14:24:29;;;;;;;;;;;56.60;11.70;;;;;;5043457;28;74519;-68